sensor_id;sensor_type;location;lat;lon;timestamp;pressure;altitude;pressure_sealevel;temperature;humidity
3260;BME280;68938;48.150;14.004;2023-04-05T00:01:57;98591.19;;;6.74;40.24
3260;BME280;68938;48.150;14.004;2023-04-05T00:04:24;98592.06;;;6.68;39.77
3260;BME280;68938;48.150;14.004;2023-04-05T00:06:52;98591.22;;;6.68;39.73
3260;BME280;68938;48.150;14.004;2023-04-05T00:09:20;98587.00;;;6.62;39.85
3260;BME280;68938;48.150;14.004;2023-04-05T00:11:47;98579.38;;;6.59;39.91
3260;BME280;68938;48.150;14.004;2023-04-05T00:14:14;98583.66;;;6.57;39.93
3260;BME280;68938;48.150;14.004;2023-04-05T00:16:41;98587.06;;;6.53;39.82
3260;BME280;68938;48.150;14.004;2023-04-05T00:19:08;98574.38;;;6.47;40.31
3260;BME280;68938;48.150;14.004;2023-04-05T00:21:35;98581.13;;;6.49;40.17
3260;BME280;68938;48.150;14.004;2023-04-05T00:24:02;98583.75;;;6.43;40.39
3260;BME280;68938;48.150;14.004;2023-04-05T00:26:29;98581.19;;;6.41;40.55
3260;BME280;68938;48.150;14.004;2023-04-05T00:28:56;98581.22;;;6.40;40.52
3260;BME280;68938;48.150;14.004;2023-04-05T00:31:23;98580.38;;;6.35;40.74
3260;BME280;68938;48.150;14.004;2023-04-05T00:33:50;98580.41;;;6.30;40.76
3260;BME280;68938;48.150;14.004;2023-04-05T00:36:19;98574.50;;;6.24;40.99
3260;BME280;68938;48.150;14.004;2023-04-05T00:38:47;98578.75;;;6.22;41.06
3260;BME280;68938;48.150;14.004;2023-04-05T00:41:14;98580.47;;;6.23;40.96
3260;BME280;68938;48.150;14.004;2023-04-05T00:43:41;98579.63;;;6.17;41.36
3260;BME280;68938;48.150;14.004;2023-04-05T00:46:08;98577.94;;;6.13;40.95
3260;BME280;68938;48.150;14.004;2023-04-05T00:48:37;98573.72;;;6.08;41.07
3260;BME280;68938;48.150;14.004;2023-04-05T00:51:04;98574.56;;;6.08;41.22
3260;BME280;68938;48.150;14.004;2023-04-05T00:53:31;98578.00;;;6.03;41.49
3260;BME280;68938;48.150;14.004;2023-04-05T00:55:58;98573.78;;;5.99;41.22
3260;BME280;68938;48.150;14.004;2023-04-05T00:58:26;98564.44;;;5.99;41.24
3260;BME280;68938;48.150;14.004;2023-04-05T01:03:34;98575.50;;;5.95;41.35
3260;BME280;68938;48.150;14.004;2023-04-05T01:09:04;98563.59;;;5.88;41.85
3260;BME280;68938;48.150;14.004;2023-04-05T01:11:37;98558.53;;;5.86;41.85
3260;BME280;68938;48.150;14.004;2023-04-05T01:14:05;98566.19;;;5.82;41.54
3260;BME280;68938;48.150;14.004;2023-04-05T01:16:32;98560.25;;;5.78;41.78
3260;BME280;68938;48.150;14.004;2023-04-05T01:18:59;98560.25;;;5.77;41.97
3260;BME280;68938;48.150;14.004;2023-04-05T01:32:45;98552.69;;;5.61;43.00
3260;BME280;68938;48.150;14.004;2023-04-05T01:35:24;98551.84;;;5.58;43.10
3260;BME280;68938;48.150;14.004;2023-04-05T01:38:00;98554.38;;;5.56;43.90
3260;BME280;68938;48.150;14.004;2023-04-05T01:40:29;98555.25;;;5.55;43.22
3260;BME280;68938;48.150;14.004;2023-04-05T01:42:56;98550.19;;;5.51;44.65
3260;BME280;68938;48.150;14.004;2023-04-05T01:45:26;98556.97;;;5.47;44.45
3260;BME280;68938;48.150;14.004;2023-04-05T01:47:54;98549.34;;;5.45;44.29
3260;BME280;68938;48.150;14.004;2023-04-05T01:50:20;98556.97;;;5.42;45.52
3260;BME280;68938;48.150;14.004;2023-04-05T01:52:47;98555.28;;;5.35;45.16
3260;BME280;68938;48.150;14.004;2023-04-05T01:55:14;98545.97;;;5.28;44.40
3260;BME280;68938;48.150;14.004;2023-04-05T01:57:41;98552.75;;;5.29;44.57
3260;BME280;68938;48.150;14.004;2023-04-05T02:00:09;98554.47;;;5.26;45.09
3260;BME280;68938;48.150;14.004;2023-04-05T02:02:36;98553.63;;;5.22;44.20
3260;BME280;68938;48.150;14.004;2023-04-05T02:05:04;98562.09;;;5.15;45.06
3260;BME280;68938;48.150;14.004;2023-04-05T02:07:31;98549.41;;;5.10;45.86
3260;BME280;68938;48.150;14.004;2023-04-05T02:09:58;98559.59;;;5.07;45.20
3260;BME280;68938;48.150;14.004;2023-04-05T02:12:24;98555.34;;;5.02;45.49
3260;BME280;68938;48.150;14.004;2023-04-05T02:14:51;98554.50;;;4.99;45.56
3260;BME280;68938;48.150;14.004;2023-04-05T02:17:18;98546.03;;;4.96;45.99
3260;BME280;68938;48.150;14.004;2023-04-05T02:19:45;98553.66;;;4.96;45.76
3260;BME280;68938;48.150;14.004;2023-04-05T02:22:12;98543.50;;;4.96;45.82
3260;BME280;68938;48.150;14.004;2023-04-05T02:24:39;98556.19;;;4.97;46.20
3260;BME280;68938;48.150;14.004;2023-04-05T02:27:06;98545.19;;;4.97;46.27
3260;BME280;68938;48.150;14.004;2023-04-05T02:29:33;98551.13;;;4.94;46.39
3260;BME280;68938;48.150;14.004;2023-04-05T02:32:00;98553.66;;;4.93;45.72
3260;BME280;68938;48.150;14.004;2023-04-05T02:34:28;98555.34;;;4.94;46.04
3260;BME280;68938;48.150;14.004;2023-04-05T02:36:54;98546.03;;;4.88;45.58
3260;BME280;68938;48.150;14.004;2023-04-05T02:39:21;98546.88;;;4.92;45.39
3260;BME280;68938;48.150;14.004;2023-04-05T02:41:48;98548.56;;;4.88;45.46
3260;BME280;68938;48.150;14.004;2023-04-05T02:44:15;98548.56;;;4.88;45.64
3260;BME280;68938;48.150;14.004;2023-04-05T02:46:42;98550.28;;;4.86;45.78
3260;BME280;68938;48.150;14.004;2023-04-05T02:49:09;98553.66;;;4.84;46.19
3260;BME280;68938;48.150;14.004;2023-04-05T02:51:36;98548.59;;;4.81;45.99
3260;BME280;68938;48.150;14.004;2023-04-05T02:54:03;98542.66;;;4.79;45.91
3260;BME280;68938;48.150;14.004;2023-04-05T02:56:30;98540.09;;;4.74;46.22
3260;BME280;68938;48.150;14.004;2023-04-05T02:58:57;98548.56;;;4.74;46.21
3260;BME280;68938;48.150;14.004;2023-04-05T03:01:24;98550.28;;;4.74;46.26
3260;BME280;68938;48.150;14.004;2023-04-05T03:03:51;98541.81;;;4.73;46.38
3260;BME280;68938;48.150;14.004;2023-04-05T03:06:19;98540.09;;;4.68;46.34
3260;BME280;68938;48.150;14.004;2023-04-05T03:08:45;98538.44;;;4.62;46.29
3260;BME280;68938;48.150;14.004;2023-04-05T03:11:12;98539.25;;;4.60;46.98
3260;BME280;68938;48.150;14.004;2023-04-05T03:13:40;98537.56;;;4.56;47.06
3260;BME280;68938;48.150;14.004;2023-04-05T03:16:06;98538.41;;;4.55;46.86
3260;BME280;68938;48.150;14.004;2023-04-05T03:18:33;98537.56;;;4.54;46.73
3260;BME280;68938;48.150;14.004;2023-04-05T03:21:00;98529.94;;;4.51;46.95
3260;BME280;68938;48.150;14.004;2023-04-05T03:23:29;98533.34;;;4.48;46.86
3260;BME280;68938;48.150;14.004;2023-04-05T03:25:59;98529.94;;;4.45;46.90
3260;BME280;68938;48.150;14.004;2023-04-05T03:28:28;98523.16;;;4.41;46.96
3260;BME280;68938;48.150;14.004;2023-04-05T03:30:57;98529.94;;;4.42;47.75
3260;BME280;68938;48.150;14.004;2023-04-05T03:33:24;98535.00;;;4.37;48.35
3260;BME280;68938;48.150;14.004;2023-04-05T03:35:51;98536.69;;;4.40;47.90
3260;BME280;68938;48.150;14.004;2023-04-05T03:38:18;98535.03;;;4.34;48.40
3260;BME280;68938;48.150;14.004;2023-04-05T03:40:45;98532.47;;;4.37;47.87
3260;BME280;68938;48.150;14.004;2023-04-05T03:43:12;98534.19;;;4.38;47.56
3260;BME280;68938;48.150;14.004;2023-04-05T03:45:39;98529.94;;;4.42;47.20
3260;BME280;68938;48.150;14.004;2023-04-05T03:48:06;98539.22;;;4.44;47.58
3260;BME280;68938;48.150;14.004;2023-04-05T03:50:33;98535.03;;;4.45;47.44
3260;BME280;68938;48.150;14.004;2023-04-05T03:53:00;98540.09;;;4.45;48.36
3260;BME280;68938;48.150;14.004;2023-04-05T03:55:27;98537.56;;;4.48;48.35
3260;BME280;68938;48.150;14.004;2023-04-05T03:57:54;98535.88;;;4.48;48.81
3260;BME280;68938;48.150;14.004;2023-04-05T04:00:21;98535.03;;;4.49;47.67
3260;BME280;68938;48.150;14.004;2023-04-05T04:02:48;98529.94;;;4.51;47.49
3260;BME280;68938;48.150;14.004;2023-04-05T04:05:16;98534.19;;;4.52;47.69
3260;BME280;68938;48.150;14.004;2023-04-05T04:07:43;98525.72;;;4.53;47.20
3260;BME280;68938;48.150;14.004;2023-04-05T04:10:13;98524.84;;;4.54;46.89
3260;BME280;68938;48.150;14.004;2023-04-05T04:12:41;98519.78;;;4.49;47.36
3260;BME280;68938;48.150;14.004;2023-04-05T04:15:08;98526.53;;;4.50;47.34
3260;BME280;68938;48.150;14.004;2023-04-05T04:17:36;98527.41;;;4.46;47.50
3260;BME280;68938;48.150;14.004;2023-04-05T04:20:04;98535.84;;;4.44;47.80
3260;BME280;68938;48.150;14.004;2023-04-05T04:22:31;98529.06;;;4.37;47.71
3260;BME280;68938;48.150;14.004;2023-04-05T04:24:59;98529.91;;;4.30;47.79
3260;BME280;68938;48.150;14.004;2023-04-05T04:27:25;98528.22;;;4.27;47.97
3260;BME280;68938;48.150;14.004;2023-04-05T04:29:52;98530.75;;;4.22;48.03
3260;BME280;68938;48.150;14.004;2023-04-05T04:32:19;98529.06;;;4.18;48.14
3260;BME280;68938;48.150;14.004;2023-04-05T04:34:46;98527.38;;;4.17;48.13
3260;BME280;68938;48.150;14.004;2023-04-05T04:37:13;98529.06;;;4.14;48.00
3260;BME280;68938;48.150;14.004;2023-04-05T04:39:40;98528.19;;;4.12;48.27
3260;BME280;68938;48.150;14.004;2023-04-05T04:42:07;98533.25;;;4.10;48.39
3260;BME280;68938;48.150;14.004;2023-04-05T04:44:34;98537.47;;;4.07;48.36
3260;BME280;68938;48.150;14.004;2023-04-05T04:47:01;98539.19;;;4.04;48.76
3260;BME280;68938;48.150;14.004;2023-04-05T04:49:29;98537.47;;;4.02;48.61
3260;BME280;68938;48.150;14.004;2023-04-05T04:51:56;98534.09;;;3.98;49.12
3260;BME280;68938;48.150;14.004;2023-04-05T04:54:23;98531.53;;;3.98;49.44
3260;BME280;68938;48.150;14.004;2023-04-05T04:56:50;98534.06;;;3.95;49.09
3260;BME280;68938;48.150;14.004;2023-04-05T04:59:16;98535.75;;;3.92;49.55
3260;BME280;68938;48.150;14.004;2023-04-05T05:01:44;98536.59;;;3.88;50.60
3260;BME280;68938;48.150;14.004;2023-04-05T05:04:11;98532.38;;;3.88;50.00
3260;BME280;68938;48.150;14.004;2023-04-05T05:06:38;98538.28;;;3.86;50.35
3260;BME280;68938;48.150;14.004;2023-04-05T05:09:05;98539.13;;;3.89;51.54
3260;BME280;68938;48.150;14.004;2023-04-05T05:11:32;98541.66;;;3.80;50.87
3260;BME280;68938;48.150;14.004;2023-04-05T05:13:59;98537.41;;;3.77;51.65
3260;BME280;68938;48.150;14.004;2023-04-05T05:16:26;98539.97;;;3.84;52.00
3260;BME280;68938;48.150;14.004;2023-04-05T05:18:53;98536.59;;;3.85;51.60
3260;BME280;68938;48.150;14.004;2023-04-05T05:21:20;98541.66;;;3.89;51.76
3260;BME280;68938;48.150;14.004;2023-04-05T05:23:47;98548.47;;;3.95;52.04
3260;BME280;68938;48.150;14.004;2023-04-05T05:26:14;98544.22;;;4.00;52.18
3260;BME280;68938;48.150;14.004;2023-04-05T05:28:41;98539.19;;;4.08;51.44
3260;BME280;68938;48.150;14.004;2023-04-05T05:31:08;98543.41;;;4.10;51.47
3260;BME280;68938;48.150;14.004;2023-04-05T05:33:35;98546.84;;;4.14;51.37
3260;BME280;68938;48.150;14.004;2023-04-05T05:36:01;98543.44;;;4.19;50.95
3260;BME280;68938;48.150;14.004;2023-04-05T05:38:29;98548.53;;;4.28;51.06
3260;BME280;68938;48.150;14.004;2023-04-05T05:40:56;98544.31;;;4.40;50.68
3260;BME280;68938;48.150;14.004;2023-04-05T05:43:23;98547.72;;;4.53;49.57
3260;BME280;68938;48.150;14.004;2023-04-05T05:45:50;98545.19;;;4.63;50.43
3260;BME280;68938;48.150;14.004;2023-04-05T05:48:17;98542.66;;;4.71;49.38
3260;BME280;68938;48.150;14.004;2023-04-05T05:50:44;98547.72;;;4.85;49.54
3260;BME280;68938;48.150;14.004;2023-04-05T05:53:10;98553.66;;;4.87;49.14
3260;BME280;68938;48.150;14.004;2023-04-05T05:55:37;98549.41;;;4.95;49.56
3260;BME280;68938;48.150;14.004;2023-04-05T05:58:04;98557.03;;;5.07;48.96
3260;BME280;68938;48.150;14.004;2023-04-05T06:00:31;98547.72;;;5.17;48.65
3260;BME280;68938;48.150;14.004;2023-04-05T06:02:58;98552.75;;;5.26;48.62
3260;BME280;68938;48.150;14.004;2023-04-05T06:05:25;98554.47;;;5.22;47.01
3260;BME280;68938;48.150;14.004;2023-04-05T06:07:52;98551.06;;;5.34;47.27
3260;BME280;68938;48.150;14.004;2023-04-05T06:10:18;98546.78;;;5.52;46.91
3260;BME280;68938;48.150;14.004;2023-04-05T06:12:45;98549.25;;;5.64;46.67
3260;BME280;68938;48.150;14.004;2023-04-05T06:15:12;98546.72;;;5.68;46.17
3260;BME280;68938;48.150;14.004;2023-04-05T06:17:39;98556.00;;;5.79;45.07
3260;BME280;68938;48.150;14.004;2023-04-05T06:20:08;98558.53;;;5.80;44.70
3260;BME280;68938;48.150;14.004;2023-04-05T06:22:35;98553.41;;;5.89;45.16
3260;BME280;68938;48.150;14.004;2023-04-05T06:25:03;98550.03;;;5.92;43.91
3260;BME280;68938;48.150;14.004;2023-04-05T06:27:30;98556.81;;;5.93;43.82
3260;BME280;68938;48.150;14.004;2023-04-05T06:30:00;98553.41;;;5.99;43.80
3260;BME280;68938;48.150;14.004;2023-04-05T06:32:27;98556.03;;;5.73;43.20
3260;BME280;68938;48.150;14.004;2023-04-05T06:34:54;98551.72;;;5.84;43.00
3260;BME280;68938;48.150;14.004;2023-04-05T06:37:20;98555.94;;;5.91;42.84
3260;BME280;68938;48.150;14.004;2023-04-05T06:39:47;98551.75;;;5.82;42.18
3260;BME280;68938;48.150;14.004;2023-04-05T06:42:14;98553.47;;;5.82;42.40
3260;BME280;68938;48.150;14.004;2023-04-05T06:44:41;98552.56;;;6.00;42.36
3260;BME280;68938;48.150;14.004;2023-04-05T06:47:08;98552.47;;;6.12;41.75
3260;BME280;68938;48.150;14.004;2023-04-05T06:49:35;98543.19;;;6.05;41.04
3260;BME280;68938;48.150;14.004;2023-04-05T06:52:02;98552.47;;;6.16;41.74
3260;BME280;68938;48.150;14.004;2023-04-05T06:54:29;98549.84;;;6.30;40.92
3260;BME280;68938;48.150;14.004;2023-04-05T06:56:56;98556.66;;;6.22;40.00
3260;BME280;68938;48.150;14.004;2023-04-05T06:59:27;98555.03;;;6.10;39.04
3260;BME280;68938;48.150;14.004;2023-04-05T07:01:55;98557.56;;;6.13;37.97
3260;BME280;68938;48.150;14.004;2023-04-05T07:04:22;98541.28;;;6.39;37.50
3260;BME280;68938;48.150;14.004;2023-04-05T07:06:49;98543.78;;;6.47;38.80
3260;BME280;68938;48.150;14.004;2023-04-05T07:09:16;98543.72;;;6.57;38.77
3260;BME280;68938;48.150;14.004;2023-04-05T07:11:43;98545.22;;;6.81;39.14
3260;BME280;68938;48.150;14.004;2023-04-05T07:14:10;98546.88;;;6.88;37.53
3260;BME280;68938;48.150;14.004;2023-04-05T07:16:37;98542.59;;;6.92;38.69
3260;BME280;68938;48.150;14.004;2023-04-05T07:19:04;98541.84;;;6.76;36.95
3260;BME280;68938;48.150;14.004;2023-04-05T07:21:30;98547.06;;;6.62;37.50
3260;BME280;68938;48.150;14.004;2023-04-05T07:23:57;98543.50;;;6.85;36.93
3260;BME280;68938;48.150;14.004;2023-04-05T07:26:24;98539.13;;;6.96;36.98
3260;BME280;68938;48.150;14.004;2023-04-05T07:28:51;98542.41;;;7.10;37.26
3260;BME280;68938;48.150;14.004;2023-04-05T07:31:18;98541.00;;;6.77;37.04
3260;BME280;68938;48.150;14.004;2023-04-05T07:33:45;98549.63;;;6.64;36.69
3260;BME280;68938;48.150;14.004;2023-04-05T07:36:12;98546.97;;;6.73;38.92
3260;BME280;68938;48.150;14.004;2023-04-05T07:38:38;98545.31;;;6.69;37.75
3260;BME280;68938;48.150;14.004;2023-04-05T07:41:05;98547.88;;;6.69;38.22
3260;BME280;68938;48.150;14.004;2023-04-05T07:43:32;98549.34;;;6.98;37.78
3260;BME280;68938;48.150;14.004;2023-04-05T07:46:03;98547.25;;;7.36;37.66
3260;BME280;68938;48.150;14.004;2023-04-05T07:48:30;98544.72;;;7.36;37.28
3260;BME280;68938;48.150;14.004;2023-04-05T07:51:04;98538.53;;;7.57;37.03
3260;BME280;68938;48.150;14.004;2023-04-05T07:53:33;98546.25;;;7.51;36.22
3260;BME280;68938;48.150;14.004;2023-04-05T07:56:07;98554.31;;;7.11;35.31
3260;BME280;68938;48.150;14.004;2023-04-05T07:58:35;98554.31;;;7.10;34.64
3260;BME280;68938;48.150;14.004;2023-04-05T08:01:03;98549.09;;;7.25;34.72
3260;BME280;68938;48.150;14.004;2023-04-05T08:03:31;98550.00;;;7.17;35.83
3260;BME280;68938;48.150;14.004;2023-04-05T08:05:58;98559.47;;;7.04;35.26
3260;BME280;68938;48.150;14.004;2023-04-05T08:08:25;98544.16;;;7.04;35.96
3260;BME280;68938;48.150;14.004;2023-04-05T08:10:52;98552.72;;;7.01;34.64
3260;BME280;68938;48.150;14.004;2023-04-05T08:13:19;98550.06;;;7.12;33.35
3260;BME280;68938;48.150;14.004;2023-04-05T08:15:46;98548.97;;;7.36;34.82
3260;BME280;68938;48.150;14.004;2023-04-05T08:18:12;98551.41;;;7.47;33.77
3260;BME280;68938;48.150;14.004;2023-04-05T08:20:39;98542.59;;;7.72;33.05
3260;BME280;68938;48.150;14.004;2023-04-05T08:23:06;98552.06;;;7.64;33.51
3260;BME280;68938;48.150;14.004;2023-04-05T08:25:33;98547.84;;;7.60;33.40
3260;BME280;68938;48.150;14.004;2023-04-05T08:28:00;98543.53;;;7.67;33.51
3260;BME280;68938;48.150;14.004;2023-04-05T08:30:27;98546.00;;;7.73;33.46
3260;BME280;68938;48.150;14.004;2023-04-05T08:32:54;98545.16;;;7.74;33.00
3260;BME280;68938;48.150;14.004;2023-04-05T08:35:21;98541.69;;;7.78;32.44
3260;BME280;68938;48.150;14.004;2023-04-05T08:37:48;98554.69;;;7.58;32.99
3260;BME280;68938;48.150;14.004;2023-04-05T08:40:15;98546.28;;;7.45;32.11
3260;BME280;68938;48.150;14.004;2023-04-05T08:42:46;98536.88;;;7.53;33.21
3260;BME280;68938;48.150;14.004;2023-04-05T08:45:18;98545.44;;;7.49;33.67
3260;BME280;68938;48.150;14.004;2023-04-05T08:47:48;98536.94;;;7.49;34.12
3260;BME280;68938;48.150;14.004;2023-04-05T08:50:17;98546.16;;;7.60;34.39
3260;BME280;68938;48.150;14.004;2023-04-05T08:52:45;98541.44;;;7.25;34.12
3260;BME280;68938;48.150;14.004;2023-04-05T08:55:12;98541.56;;;7.10;33.95
3260;BME280;68938;48.150;14.004;2023-04-05T08:57:42;98542.25;;;7.29;33.43
3260;BME280;68938;48.150;14.004;2023-04-05T09:00:11;98541.28;;;7.38;32.37
3260;BME280;68938;48.150;14.004;2023-04-05T09:02:39;98539.34;;;7.58;32.18
3260;BME280;68938;48.150;14.004;2023-04-05T09:05:10;98532.38;;;7.74;33.46
3260;BME280;68938;48.150;14.004;2023-04-05T09:07:39;98532.19;;;7.12;33.07
3260;BME280;68938;48.150;14.004;2023-04-05T09:10:07;98539.16;;;6.98;34.53
3260;BME280;68938;48.150;14.004;2023-04-05T09:12:35;98533.63;;;7.38;33.23
3260;BME280;68938;48.150;14.004;2023-04-05T09:15:02;98526.75;;;7.46;33.42
3260;BME280;68938;48.150;14.004;2023-04-05T09:17:29;98528.81;;;7.87;32.92
3260;BME280;68938;48.150;14.004;2023-04-05T09:19:57;98524.47;;;7.94;32.70
3260;BME280;68938;48.150;14.004;2023-04-05T09:22:24;98523.22;;;8.22;32.33
3260;BME280;68938;48.150;14.004;2023-04-05T09:24:51;98518.94;;;8.23;31.36
3260;BME280;68938;48.150;14.004;2023-04-05T09:27:19;98523.47;;;8.04;31.50
3260;BME280;68938;48.150;14.004;2023-04-05T09:29:48;98526.53;;;8.29;32.27
3260;BME280;68938;48.150;14.004;2023-04-05T09:32:17;98528.41;;;8.16;31.48
3260;BME280;68938;48.150;14.004;2023-04-05T09:34:44;98522.56;;;8.08;29.83
3260;BME280;68938;48.150;14.004;2023-04-05T09:37:16;98530.25;;;8.08;29.52
3260;BME280;68938;48.150;14.004;2023-04-05T09:39:44;98525.47;;;8.44;31.95
3260;BME280;68938;48.150;14.004;2023-04-05T09:42:13;98524.06;;;8.23;30.91
3260;BME280;68938;48.150;14.004;2023-04-05T09:47:16;98522.91;;;8.98;29.98
3260;BME280;68938;48.150;14.004;2023-04-05T09:49:44;98513.84;;;8.80;30.32
3260;BME280;68938;48.150;14.004;2023-04-05T09:52:21;98520.75;;;9.24;29.90
3260;BME280;68938;48.150;14.004;2023-04-05T09:54:51;98509.44;;;9.35;29.71
3260;BME280;68938;48.150;14.004;2023-04-05T09:57:19;98510.19;;;9.40;29.16
3260;BME280;68938;48.150;14.004;2023-04-05T09:59:46;98503.72;;;9.65;29.84
3260;BME280;68938;48.150;14.004;2023-04-05T10:02:14;98504.53;;;9.67;28.41
3260;BME280;68938;48.150;14.004;2023-04-05T10:04:44;98497.78;;;10.04;29.33
3260;BME280;68938;48.150;14.004;2023-04-05T10:07:13;98493.78;;;9.92;28.64
3260;BME280;68938;48.150;14.004;2023-04-05T10:09:46;98488.56;;;9.96;29.62
3260;BME280;68938;48.150;14.004;2023-04-05T10:12:26;98488.78;;;10.26;28.10
3260;BME280;68938;48.150;14.004;2023-04-05T10:14:57;98479.88;;;10.41;29.42
3260;BME280;68938;48.150;14.004;2023-04-05T10:34:06;98465.75;;;10.60;28.50
3260;BME280;68938;48.150;14.004;2023-04-05T10:36:44;98450.09;;;10.70;27.84
3260;BME280;68938;48.150;14.004;2023-04-05T10:39:32;98453.94;;;10.87;29.38
3260;BME280;68938;48.150;14.004;2023-04-05T10:44:51;98451.66;;;11.09;29.71
3260;BME280;68938;48.150;14.004;2023-04-05T10:47:22;98456.78;;;11.41;28.19
3260;BME280;68938;48.150;14.004;2023-04-05T10:49:52;98454.72;;;11.53;27.32
3260;BME280;68938;48.150;14.004;2023-04-05T10:52:23;98449.16;;;11.37;26.34
3260;BME280;68938;48.150;14.004;2023-04-05T10:54:51;98448.31;;;11.06;26.59
3260;BME280;68938;48.150;14.004;2023-04-05T10:57:19;98453.19;;;10.84;28.78
3260;BME280;68938;48.150;14.004;2023-04-05T10:59:47;98465.56;;;10.66;30.67
3260;BME280;68938;48.150;14.004;2023-04-05T11:02:17;98463.94;;;10.98;28.91
3260;BME280;68938;48.150;14.004;2023-04-05T11:04:45;98458.97;;;10.90;27.00
3260;BME280;68938;48.150;14.004;2023-04-05T11:09:55;98450.41;;;10.91;26.99
3260;BME280;68938;48.150;14.004;2023-04-05T11:18:09;98438.28;;;10.97;28.62
3260;BME280;68938;48.150;14.004;2023-04-05T11:21:05;98440.31;;;11.17;29.03
3260;BME280;68938;48.150;14.004;2023-04-05T11:24:06;98437.22;;;11.05;26.46
3260;BME280;68938;48.150;14.004;2023-04-05T11:29:16;98429.16;;;10.86;26.58
3260;BME280;68938;48.150;14.004;2023-04-05T11:31:57;98439.47;;;10.85;27.29
3260;BME280;68938;48.150;14.004;2023-04-05T11:34:25;98434.97;;;10.93;27.51
3260;BME280;68938;48.150;14.004;2023-04-05T11:36:51;98430.66;;;10.94;25.52
3260;BME280;68938;48.150;14.004;2023-04-05T11:42:01;98429.53;;;11.65;26.37
3260;BME280;68938;48.150;14.004;2023-04-05T11:44:43;98430.19;;;11.71;24.46
3260;BME280;68938;48.150;14.004;2023-04-05T11:47:12;98423.16;;;11.78;25.14
3260;BME280;68938;48.150;14.004;2023-04-05T11:49:41;98418.72;;;11.83;25.78
3260;BME280;68938;48.150;14.004;2023-04-05T11:52:13;98413.03;;;12.01;25.99
3260;BME280;68938;48.150;14.004;2023-04-05T11:54:41;98406.19;;;11.72;25.63
3260;BME280;68938;48.150;14.004;2023-04-05T11:57:12;98416.53;;;11.71;26.20
3260;BME280;68938;48.150;14.004;2023-04-05T11:59:41;98417.19;;;11.77;25.86
3260;BME280;68938;48.150;14.004;2023-04-05T12:02:07;98411.28;;;11.74;25.62
3260;BME280;68938;48.150;14.004;2023-04-05T12:04:35;98414.19;;;11.63;26.46
3260;BME280;68938;48.150;14.004;2023-04-05T12:07:13;98405.50;;;11.67;24.92
3260;BME280;68938;48.150;14.004;2023-04-05T12:12:39;98406.16;;;11.44;25.56
3260;BME280;68938;48.150;14.004;2023-04-05T12:15:10;98404.81;;;11.31;25.83
3260;BME280;68938;48.150;14.004;2023-04-05T12:17:39;98399.13;;;11.51;25.42
3260;BME280;68938;48.150;14.004;2023-04-05T12:20:08;98394.09;;;11.18;24.58
3260;BME280;68938;48.150;14.004;2023-04-05T12:22:37;98388.66;;;11.27;26.46
3260;BME280;68938;48.150;14.004;2023-04-05T12:25:05;98389.00;;;11.46;26.53
3260;BME280;68938;48.150;14.004;2023-04-05T12:27:34;98385.34;;;11.53;25.53
3260;BME280;68938;48.150;14.004;2023-04-05T12:30:19;98377.13;;;11.70;24.23
3260;BME280;68938;48.150;14.004;2023-04-05T12:32:54;98376.06;;;11.77;24.68
3260;BME280;68938;48.150;14.004;2023-04-05T12:35:23;98378.13;;;11.66;24.81
3260;BME280;68938;48.150;14.004;2023-04-05T12:37:57;98382.38;;;11.67;24.25
3260;BME280;68938;48.150;14.004;2023-04-05T12:40:24;98372.44;;;11.84;26.53
3260;BME280;68938;48.150;14.004;2023-04-05T12:42:51;98371.34;;;11.63;25.16
3260;BME280;68938;48.150;14.004;2023-04-05T12:45:22;98368.78;;;11.92;26.64
3260;BME280;68938;48.150;14.004;2023-04-05T12:47:56;98373.00;;;11.94;27.75
3260;BME280;68938;48.150;14.004;2023-04-05T12:50:29;98369.50;;;11.97;26.61
3260;BME280;68938;48.150;14.004;2023-04-05T12:52:58;98373.53;;;11.48;26.17
3260;BME280;68938;48.150;14.004;2023-04-05T12:55:27;98371.00;;;11.74;27.12
3260;BME280;68938;48.150;14.004;2023-04-05T12:57:58;98365.13;;;11.43;26.04
3260;BME280;68938;48.150;14.004;2023-04-05T13:00:29;98363.34;;;11.73;26.51
3260;BME280;68938;48.150;14.004;2023-04-05T13:02:57;98359.59;;;11.84;25.70
3260;BME280;68938;48.150;14.004;2023-04-05T13:05:27;98359.81;;;11.77;26.50
3260;BME280;68938;48.150;14.004;2023-04-05T13:07:55;98362.00;;;11.61;26.31
3260;BME280;68938;48.150;14.004;2023-04-05T13:10:23;98366.13;;;11.67;26.71
3260;BME280;68938;48.150;14.004;2023-04-05T13:12:51;98352.34;;;11.97;27.24
3260;BME280;68938;48.150;14.004;2023-04-05T13:15:18;98354.75;;;12.02;27.23
3260;BME280;68938;48.150;14.004;2023-04-05T13:17:45;98358.44;;;12.20;26.37
3260;BME280;68938;48.150;14.004;2023-04-05T13:20:12;98363.59;;;11.93;26.00
3260;BME280;68938;48.150;14.004;2023-04-05T13:22:39;98357.91;;;12.10;25.71
3260;BME280;68938;48.150;14.004;2023-04-05T13:25:06;98354.72;;;12.03;25.06
3260;BME280;68938;48.150;14.004;2023-04-05T13:27:33;98352.16;;;12.28;25.23
3260;BME280;68938;48.150;14.004;2023-04-05T13:30:00;98349.22;;;12.39;24.57
3260;BME280;68938;48.150;14.004;2023-04-05T13:32:27;98350.72;;;12.46;25.24
3260;BME280;68938;48.150;14.004;2023-04-05T13:34:54;98348.59;;;12.57;24.52
3260;BME280;68938;48.150;14.004;2023-04-05T13:37:21;98350.97;;;12.64;24.66
3260;BME280;68938;48.150;14.004;2023-04-05T13:39:48;98351.69;;;12.67;25.17
3260;BME280;68938;48.150;14.004;2023-04-05T13:42:15;98343.03;;;12.70;25.30
3260;BME280;68938;48.150;14.004;2023-04-05T13:44:42;98345.22;;;12.80;25.27
3260;BME280;68938;48.150;14.004;2023-04-05T13:47:09;98341.63;;;12.85;25.16
3260;BME280;68938;48.150;14.004;2023-04-05T13:49:35;98339.47;;;12.97;25.03
3260;BME280;68938;48.150;14.004;2023-04-05T13:52:02;98337.91;;;12.93;25.77
3260;BME280;68938;48.150;14.004;2023-04-05T13:54:29;98332.25;;;12.84;25.36
3260;BME280;68938;48.150;14.004;2023-04-05T13:56:56;98323.84;;;13.02;25.01
3260;BME280;68938;48.150;14.004;2023-04-05T13:59:24;98330.59;;;13.06;24.94
3260;BME280;68938;48.150;14.004;2023-04-05T14:01:51;98327.72;;;13.14;24.80
3260;BME280;68938;48.150;14.004;2023-04-05T14:04:19;98320.34;;;13.28;24.36
3260;BME280;68938;48.150;14.004;2023-04-05T14:06:46;98324.66;;;13.27;24.52
3260;BME280;68938;48.150;14.004;2023-04-05T14:09:13;98323.50;;;12.64;25.05